Time;durP1;ratioP1;P1;durP2;ratioP2;P2;SDS_P1;SDS_P2;PMS_P1;PMS_P2;Temp;Humidity;BMP_temperature;BMP_pressure;BME280_temperature;BME280_humidity;BME280_pressure;Samples;Min_cycle;Max_cycle;Signal;HPM_P1;HPM_P2
2022/03/19 00:00:32;;;;;;;13.68;2.72;;;6.20;64.20;;;;;;6186592;23;20032;-87
2022/03/19 00:02:57;;;;;;;9.68;2.67;;;6.10;64.10;;;;;;6192605;23;20020;-87
2022/03/19 00:05:23;;;;;;;12.60;2.95;;;6.10;64.10;;;;;;6161171;23;20064;-87
2022/03/19 00:07:50;;;;;;;13.38;2.50;;;6.20;64.50;;;;;;6190282;23;20017;-86
2022/03/19 00:10:16;;;;;;;13.15;2.83;;;6.10;64.00;;;;;;6203180;23;20017;-86
2022/03/19 00:12:42;;;;;;;11.18;2.70;;;6.10;64.00;;;;;;6202062;23;20017;-87
2022/03/19 00:15:10;;;;;;;8.02;2.30;;;6.00;63.90;;;;;;6202876;23;20023;-87
2022/03/19 00:17:36;;;;;;;12.68;3.35;;;6.00;64.00;;;;;;6202984;23;20389;-87
2022/03/19 00:20:03;;;;;;;10.45;3.10;;;6.00;64.10;;;;;;6187118;23;20017;-87
2022/03/19 00:22:29;;;;;;;10.70;3.33;;;6.00;64.20;;;;;;6135499;23;20013;-87
2022/03/19 00:24:54;;;;;;;11.73;2.92;;;6.00;64.10;;;;;;6186886;23;20059;-86
2022/03/19 00:27:20;;;;;;;13.07;2.97;;;6.00;64.00;;;;;;6185018;23;20091;-87
2022/03/19 00:29:46;;;;;;;14.73;3.53;;;6.00;64.00;;;;;;6184845;23;20108;-86
2022/03/19 00:32:11;;;;;;;10.32;2.60;;;6.00;64.00;;;;;;6185236;23;20418;-87
2022/03/19 00:34:37;;;;;;;9.43;2.60;;;6.10;64.30;;;;;;6160409;23;20017;-87
2022/03/19 00:37:03;;;;;;;10.10;2.33;;;6.00;64.20;;;;;;6184809;23;20599;-87
2022/03/19 00:39:29;;;;;;;8.73;2.42;;;6.00;64.30;;;;;;6186517;23;20488;-87
2022/03/19 00:41:54;;;;;;;8.68;2.75;;;6.40;64.80;;;;;;6186244;23;20017;-86
2022/03/19 00:44:23;;;;;;;8.77;2.30;;;6.00;64.60;;;;;;6184622;23;20456;-87
2022/03/19 00:46:49;;;;;;;7.00;2.10;;;6.60;64.90;;;;;;6184725;23;20063;-86
2022/03/19 00:49:15;;;;;;;10.02;2.40;;;6.40;64.80;;;;;;6160413;23;20024;-86
2022/03/19 00:51:40;;;;;;;9.75;1.92;;;6.20;64.70;;;;;;6186652;23;20020;-87
2022/03/19 00:54:12;;;;;;;11.05;2.65;;;6.20;64.40;;;;;;6184281;23;20023;-87
2022/03/19 00:56:38;;;;;;;10.32;2.22;;;6.20;64.10;;;;;;6186696;23;20045;-87
2022/03/19 00:59:04;;;;;;;11.45;2.33;;;6.20;63.70;;;;;;6184675;23;20377;-87
2022/03/19 01:01:30;;;;;;;9.75;2.78;;;6.10;63.60;;;;;;6189048;23;20021;-88
2022/03/19 01:03:56;;;;;;;11.07;2.63;;;6.10;63.80;;;;;;6152191;23;20039;-86
2022/03/19 01:06:22;;;;;;;12.93;3.00;;;6.10;63.70;;;;;;6193928;23;20025;-87
2022/03/19 01:08:48;;;;;;;16.52;3.35;;;6.10;63.70;;;;;;6184804;23;20013;-87
2022/03/19 01:11:14;;;;;;;9.93;2.45;;;6.10;63.70;;;;;;6184325;23;20021;-86
2022/03/19 01:13:39;;;;;;;14.65;2.92;;;6.10;63.70;;;;;;6186709;23;20020;-87
2022/03/19 01:16:05;;;;;;;7.95;2.33;;;6.00;63.60;;;;;;6186912;23;20009;-87
2022/03/19 01:18:31;;;;;;;11.55;3.38;;;6.00;63.60;;;;;;6185424;23;20024;-87
2022/03/19 01:20:57;;;;;;;13.32;3.13;;;6.00;64.10;;;;;;6186711;23;20021;-87
2022/03/19 01:23:22;;;;;;;12.82;3.05;;;5.90;63.90;;;;;;6185562;23;20450;-86
2022/03/19 01:25:48;;;;;;;13.07;2.83;;;5.90;63.90;;;;;;6187758;23;20013;-87
2022/03/19 01:28:14;;;;;;;11.45;2.75;;;5.90;64.00;;;;;;6186359;23;20017;-87
2022/03/19 01:30:40;;;;;;;12.52;3.08;;;5.90;64.20;;;;;;6188652;23;20429;-87
2022/03/19 01:33:06;;;;;;;11.63;2.65;;;5.80;64.30;;;;;;6186304;23;20132;-86
2022/03/19 01:35:31;;;;;;;8.32;2.58;;;5.70;64.40;;;;;;6186585;23;20021;-87
2022/03/19 01:37:58;;;;;;;12.27;2.55;;;5.70;64.50;;;;;;6188151;23;20441;-87
2022/03/19 01:40:24;;;;;;;12.77;2.80;;;5.70;64.50;;;;;;6186810;23;20028;-87
2022/03/19 01:42:51;;;;;;;10.50;3.35;;;5.90;64.80;;;;;;6186127;23;20009;-86
2022/03/19 01:45:22;;;;;;;12.82;2.90;;;5.80;64.80;;;;;;6188253;23;20017;-87
2022/03/19 01:47:49;;;;;;;14.52;3.22;;;5.50;64.80;;;;;;6186684;23;20020;-87
2022/03/19 01:50:17;;;;;;;15.07;4.15;;;5.50;64.90;;;;;;6186512;23;20020;-87
2022/03/19 01:52:44;;;;;;;15.13;3.42;;;5.50;65.10;;;;;;6188743;23;20056;-86
2022/03/19 01:55:12;;;;;;;11.25;2.72;;;5.50;65.10;;;;;;6186390;23;20017;-87
2022/03/19 01:57:43;;;;;;;11.48;3.45;;;5.40;65.20;;;;;;6186566;23;20067;-87
2022/03/19 02:00:12;;;;;;;13.00;3.25;;;5.40;65.40;;;;;;6186622;23;20028;-87
2022/03/19 02:02:39;;;;;;;10.30;2.83;;;5.40;65.40;;;;;;6187150;23;20024;-87
2022/03/19 02:05:05;;;;;;;15.20;2.90;;;5.40;65.60;;;;;;6187907;23;20016;-87
2022/03/19 02:07:31;;;;;;;13.80;3.25;;;5.30;65.70;;;;;;6186497;23;20092;-87
2022/03/19 02:09:58;;;;;;;11.75;3.05;;;5.30;65.80;;;;;;6188314;23;20017;-87
2022/03/19 02:12:24;;;;;;;11.98;2.38;;;5.30;65.80;;;;;;6186478;23;20017;-87
2022/03/19 02:14:50;;;;;;;14.02;2.50;;;5.30;65.80;;;;;;6187582;23;20017;-87
2022/03/19 02:17:16;;;;;;;15.25;3.22;;;5.30;65.90;;;;;;6162109;23;20017;-87
2022/03/19 02:19:50;;;;;;;9.95;2.60;;;5.30;65.90;;;;;;6187733;23;20023;-87
2022/03/19 02:22:23;;;;;;;11.32;2.85;;;5.70;66.10;;;;;;6161644;23;20390;-87
2022/03/19 02:27:35;;;;;;;14.68;3.47;;;5.20;65.90;;;;;;6187391;23;20380;-87
2022/03/19 02:30:02;;;;;;;10.73;2.83;;;5.20;66.10;;;;;;6156849;23;20009;-87
2022/03/19 02:32:28;;;;;;;11.45;3.10;;;5.20;66.20;;;;;;6213518;23;20001;-87
2022/03/19 02:34:54;;;;;;;13.18;3.60;;;5.20;66.30;;;;;;6211641;23;20065;-87
2022/03/19 02:37:20;;;;;;;12.10;2.97;;;5.10;66.30;;;;;;6185522;23;20017;-87
2022/03/19 02:39:46;;;;;;;12.80;3.50;;;5.10;66.40;;;;;;6186124;23;20478;-87
2022/03/19 02:42:31;;;;;;;13.30;3.05;;;5.10;66.40;;;;;;6186046;23;20099;-87
2022/03/19 02:44:57;;;;;;;10.80;3.38;;;5.00;66.50;;;;;;6187902;23;20017;-87
2022/03/19 02:47:23;;;;;;;11.85;3.08;;;5.00;66.50;;;;;;6187964;23;20133;-87
2022/03/19 02:49:48;;;;;;;13.05;3.33;;;5.00;66.60;;;;;;6185859;23;20017;-87
2022/03/19 02:52:14;;;;;;;12.95;3.20;;;5.00;66.70;;;;;;6188021;23;20360;-87
2022/03/19 02:54:39;;;;;;;12.27;3.47;;;5.30;66.90;;;;;;6185772;23;20040;-87
2022/03/19 02:57:05;;;;;;;12.68;3.30;;;5.10;66.80;;;;;;6187629;23;20060;-87
2022/03/19 02:59:33;;;;;;;12.85;3.10;;;4.90;66.70;;;;;;6186628;23;20017;-87
2022/03/19 03:02:01;;;;;;;15.98;4.10;;;4.90;66.80;;;;;;6186087;23;20059;-88
2022/03/19 03:04:28;;;;;;;11.10;3.08;;;4.80;67.00;;;;;;6186059;23;20028;-87
2022/03/19 03:06:56;;;;;;;21.77;4.25;;;4.80;67.10;;;;;;6188099;23;20010;-87
2022/03/19 03:09:24;;;;;;;13.07;3.65;;;4.80;67.20;;;;;;6199111;23;20013;-88
2022/03/19 03:11:50;;;;;;;8.55;3.55;;;4.80;67.30;;;;;;6156885;23;20072;-87
2022/03/19 03:14:20;;;;;;;20.20;4.05;;;4.70;67.40;;;;;;6200938;23;20333;-87
2022/03/19 03:16:46;;;;;;;12.02;2.85;;;4.70;67.40;;;;;;6161856;23;20025;-87
2022/03/19 03:19:12;;;;;;;11.50;3.63;;;4.70;67.40;;;;;;6186288;23;20091;-87
2022/03/19 03:21:41;;;;;;;11.93;3.25;;;4.70;67.60;;;;;;6187052;23;20017;-88
2022/03/19 03:24:10;;;;;;;10.18;2.80;;;4.70;67.70;;;;;;6185862;23;20067;-88
2022/03/19 03:26:37;;;;;;;16.27;4.03;;;4.60;67.80;;;;;;6185530;23;20013;-88
2022/03/19 03:29:03;;;;;;;13.30;3.63;;;4.60;67.90;;;;;;6185509;23;20139;-87
2022/03/19 03:31:29;;;;;;;13.85;3.83;;;4.60;68.00;;;;;;6185815;23;20017;-87
2022/03/19 03:33:55;;;;;;;11.25;3.17;;;4.60;67.90;;;;;;6185477;23;20059;-88
2022/03/19 03:36:21;;;;;;;14.70;4.32;;;4.60;68.00;;;;;;6185764;23;20024;-87
2022/03/19 03:38:47;;;;;;;10.90;3.05;;;4.60;68.30;;;;;;6187272;23;20024;-86
2022/03/19 03:41:13;;;;;;;8.60;2.95;;;4.50;68.20;;;;;;6185409;23;20013;-88
2022/03/19 03:43:39;;;;;;;12.50;3.80;;;4.60;68.30;;;;;;6185486;23;20481;-87
2022/03/19 03:46:05;;;;;;;13.48;3.45;;;4.60;68.20;;;;;;6185754;23;20013;-87
2022/03/19 03:48:31;;;;;;;12.48;3.40;;;5.00;68.50;;;;;;6160865;23;20372;-87
2022/03/19 03:50:58;;;;;;;15.00;3.95;;;4.60;68.10;;;;;;6185590;23;20021;-87
2022/03/19 03:53:25;;;;;;;12.73;3.97;;;4.60;68.10;;;;;;6187199;23;20013;-87
2022/03/19 03:55:51;;;;;;;12.40;3.20;;;4.60;68.20;;;;;;6185617;23;20028;-87
2022/03/19 03:58:17;;;;;;;11.50;3.58;;;4.60;68.10;;;;;;6185661;23;20458;-88
2022/03/19 04:00:43;;;;;;;12.35;3.83;;;4.70;68.20;;;;;;6185646;23;20099;-88
2022/03/19 04:03:09;;;;;;;11.98;3.47;;;4.80;68.30;;;;;;6160903;23;20068;-87
2022/03/19 04:05:35;;;;;;;10.32;2.88;;;4.60;68.10;;;;;;6188099;23;20030;-88
2022/03/19 04:08:01;;;;;;;11.05;3.42;;;4.70;68.10;;;;;;6185476;23;20013;-88
2022/03/19 04:10:28;;;;;;;12.25;3.70;;;4.70;68.10;;;;;;6186611;23;20441;-87
2022/03/19 04:12:54;;;;;;;15.32;3.92;;;4.70;68.00;;;;;;6160976;23;20022;-88
2022/03/19 04:15:20;;;;;;;15.02;5.25;;;4.70;67.90;;;;;;6185110;23;20056;-88
2022/03/19 04:17:46;;;;;;;14.23;4.30;;;4.70;67.90;;;;;;6160449;23;20017;-87
2022/03/19 04:20:12;;;;;;;16.48;4.20;;;4.60;67.90;;;;;;6187389;23;20091;-88
2022/03/19 04:22:40;;;;;;;13.73;3.88;;;4.60;68.00;;;;;;6185637;23;20122;-88
2022/03/19 04:25:16;;;;;;;11.63;3.80;;;4.60;68.00;;;;;;6194398;23;20021;-87
2022/03/19 04:27:43;;;;;;;11.80;3.58;;;4.80;68.20;;;;;;6207866;23;20013;-88
2022/03/19 04:30:12;;;;;;;10.02;3.15;;;4.60;68.10;;;;;;6191176;23;20013;-88
2022/03/19 04:32:43;;;;;;;11.75;3.33;;;4.60;68.30;;;;;;6135964;23;20013;-87
2022/03/19 04:37:56;;;;;;;11.07;3.40;;;4.60;68.30;;;;;;6187137;23;20023;-88
2022/03/19 04:40:22;;;;;;;15.75;4.10;;;4.60;68.20;;;;;;6135884;23;20067;-88
2022/03/19 04:42:47;;;;;;;13.50;3.97;;;4.60;68.00;;;;;;6185349;23;20013;-88
2022/03/19 04:45:13;;;;;;;11.18;4.13;;;4.60;67.90;;;;;;6187198;23;20063;-88
2022/03/19 04:47:39;;;;;;;12.13;4.00;;;4.60;67.90;;;;;;6186038;23;20024;-88
2022/03/19 04:50:06;;;;;;;11.77;3.63;;;4.60;68.00;;;;;;6186378;23;20024;-88
2022/03/19 04:52:34;;;;;;;13.48;3.83;;;4.50;68.10;;;;;;6185267;23;20337;-88
2022/03/19 04:55:00;;;;;;;9.75;3.85;;;4.50;68.20;;;;;;6185330;23;20020;-88
2022/03/19 04:57:30;;;;;;;14.98;4.70;;;4.40;68.20;;;;;;6160565;23;20024;-88
2022/03/19 04:59:57;;;;;;;11.88;4.35;;;4.40;68.70;;;;;;6186585;23;20056;-87
2022/03/19 05:02:24;;;;;;;13.18;4.15;;;4.30;68.40;;;;;;6160271;23;20016;-88
2022/03/19 05:04:54;;;;;;;8.82;3.78;;;4.70;68.70;;;;;;6185715;23;20099;-88
2022/03/19 05:07:21;;;;;;;10.10;3.75;;;4.30;68.70;;;;;;6185502;23;20013;-88
2022/03/19 05:12:36;;;;;;;10.45;3.92;;;4.30;68.80;;;;;;6185318;23;20021;-88
2022/03/19 05:15:03;;;;;;;12.40;4.43;;;4.20;68.70;;;;;;6185095;23;20023;-89
2022/03/19 05:17:28;;;;;;;15.75;4.47;;;4.20;68.90;;;;;;6187412;23;20013;-88
2022/03/19 05:19:54;;;;;;;15.73;4.65;;;4.20;68.90;;;;;;6187151;23;20020;-88
2022/03/19 05:22:20;;;;;;;18.27;4.68;;;4.20;69.00;;;;;;6185309;23;20500;-88
2022/03/19 05:24:46;;;;;;;12.50;3.78;;;4.20;69.00;;;;;;6185662;23;20028;-88
2022/03/19 05:34:55;;;;;;;12.40;4.50;;;4.10;69.00;;;;;;6186967;23;20015;-88
2022/03/19 05:37:20;;;;;;;12.77;4.45;;;4.10;69.10;;;;;;6185461;23;20021;-88
2022/03/19 05:39:46;;;;;;;15.07;4.38;;;4.10;69.00;;;;;;6161720;23;20031;-88
2022/03/19 05:49:33;;;;;;;15.25;5.03;;;4.00;69.10;;;;;;6186719;23;20027;-89
2022/03/19 05:51:59;;;;;;;13.15;4.32;;;4.00;69.00;;;;;;6185396;23;20013;-89
2022/03/19 05:54:25;;;;;;;17.50;5.20;;;4.00;69.00;;;;;;6185211;23;20051;-89
2022/03/19 05:56:53;;;;;;;15.32;4.97;;;4.00;69.10;;;;;;6188163;23;20048;-89
2022/03/19 05:59:19;;;;;;;13.82;4.75;;;3.90;69.10;;;;;;6186180;23;20104;-89
2022/03/19 06:01:45;;;;;;;13.48;4.75;;;4.00;69.10;;;;;;6186436;23;20014;-89
2022/03/19 06:04:11;;;;;;;15.60;4.03;;;3.90;69.10;;;;;;6186894;23;20357;-88
2022/03/19 06:06:36;;;;;;;12.80;4.03;;;3.90;69.10;;;;;;6161263;23;20024;-89
2022/03/19 06:09:03;;;;;;;14.60;4.63;;;3.90;69.20;;;;;;6185195;23;20021;-90
2022/03/19 06:11:43;;;;;;;13.20;4.00;;;3.90;69.30;;;;;;6186143;23;20025;-89
2022/03/19 06:14:09;;;;;;;16.23;4.18;;;3.90;69.30;;;;;;6187116;23;20020;-88
2022/03/19 06:16:34;;;;;;;16.52;4.53;;;4.00;69.30;;;;;;6187405;23;20322;-90
2022/03/19 06:19:00;;;;;;;13.25;4.65;;;4.20;69.50;;;;;;6162624;23;20023;-90
2022/03/19 06:21:26;;;;;;;10.93;4.93;;;4.00;69.30;;;;;;6188934;23;20023;-89
2022/03/19 06:23:53;;;;;;;15.27;4.43;;;4.20;69.50;;;;;;6138224;23;20438;-90
2022/03/19 06:26:20;;;;;;;14.18;3.88;;;4.00;69.40;;;;;;6189412;23;20009;-91
2022/03/19 06:29:23;;;;;;;15.52;4.18;;;4.00;69.40;;;;;;6188164;23;20117;-91
2022/03/19 06:31:49;;;;;;;14.30;4.38;;;4.10;69.50;;;;;;6189053;23;20013;-90
2022/03/19 06:34:15;;;;;;;10.98;3.95;;;4.10;69.40;;;;;;6188682;23;20457;-89
2022/03/19 06:39:25;;;;;;;20.37;5.50;;;4.20;69.50;;;;;;6187678;23;20025;-90
2022/03/19 06:41:50;;;;;;;12.35;3.75;;;4.20;69.50;;;;;;6186856;23;20092;-91
2022/03/19 06:44:16;;;;;;;15.27;4.57;;;4.20;69.40;;;;;;6189291;23;20092;-90
2022/03/19 06:46:42;;;;;;;15.90;5.18;;;4.30;69.50;;;;;;6162555;23;20095;-89
2022/03/19 06:49:07;;;;;;;19.60;4.93;;;4.30;69.50;;;;;;6187164;23;20009;-90
2022/03/19 06:51:33;;;;;;;13.02;3.90;;;4.40;69.60;;;;;;6162805;23;20131;-90
2022/03/19 06:53:58;;;;;;;18.00;5.05;;;4.40;69.50;;;;;;6187834;23;20009;-89
2022/03/19 06:56:24;;;;;;;16.30;4.28;;;4.50;69.40;;;;;;6190179;23;20017;-90
2022/03/19 06:59:08;;;;;;;10.65;4.75;;;4.50;69.30;;;;;;6189471;23;20013;-90
2022/03/19 07:01:36;;;;;;;13.68;4.95;;;4.60;69.30;;;;;;6163902;23;20013;-91
2022/03/19 07:04:02;;;;;;;13.43;4.07;;;4.70;69.20;;;;;;6189278;23;20025;-90
2022/03/19 07:06:28;;;;;;;16.98;5.15;;;4.80;69.10;;;;;;6178799;23;20005;-87
2022/03/19 07:08:53;;;;;;;17.17;6.43;;;4.90;69.20;;;;;;6214487;23;20032;-89
2022/03/19 07:11:19;;;;;;;19.80;4.25;;;5.00;69.10;;;;;;6211045;23;20005;-91
2022/03/19 07:17:25;;;;;;;18.83;4.97;;;5.20;68.80;;;;;;6190260;23;20096;-90
2022/03/19 07:19:51;;;;;;;16.70;4.90;;;5.30;68.70;;;;;;6164159;23;20021;-92
2022/03/19 07:22:16;;;;;;;13.23;4.28;;;5.40;68.60;;;;;;6164447;23;20372;-91
2022/03/19 07:24:43;;;;;;;12.75;4.82;;;5.50;68.40;;;;;;6186019;23;20052;-89
2022/03/19 07:27:09;;;;;;;14.48;4.88;;;5.60;68.30;;;;;;6214061;23;20008;-90
2022/03/19 07:29:35;;;;;;;11.63;4.30;;;5.70;68.10;;;;;;6214178;23;20001;-90
2022/03/19 07:32:00;;;;;;;14.55;4.70;;;5.80;68.10;;;;;;6188979;23;20027;-90
2022/03/19 07:34:26;;;;;;;10.50;4.32;;;5.90;68.00;;;;;;6188838;23;20029;-90
2022/03/19 07:36:52;;;;;;;16.75;4.45;;;6.00;68.00;;;;;;6189024;23;20001;-91
2022/03/19 07:39:17;;;;;;;13.88;4.22;;;6.10;67.90;;;;;;6188852;23;20005;-90
2022/03/19 07:41:46;;;;;;;13.55;4.90;;;6.20;67.80;;;;;;6203911;23;20013;-91
2022/03/19 07:47:53;;;;;;;13.65;4.70;;;6.50;67.70;;;;;;6214162;23;20012;-89
2022/03/19 07:50:18;;;;;;;15.38;4.35;;;6.60;67.50;;;;;;6214251;23;20009;-87
2022/03/19 07:52:47;;;;;;;16.45;5.55;;;6.70;67.00;;;;;;6213946;23;20028;-89
2022/03/19 07:55:13;;;;;;;15.10;4.18;;;6.80;66.80;;;;;;6213426;23;20044;-91
2022/03/19 08:01:32;;;;;;;15.18;4.05;;;7.10;65.40;;;;;;6190850;23;20012;-89
2022/03/19 08:03:58;;;;;;;16.02;4.50;;;7.20;64.90;;;;;;6190081;23;20021;-89
2022/03/19 08:06:23;;;;;;;15.13;4.78;;;7.40;64.90;;;;;;6188755;23;20044;-90
2022/03/19 08:08:49;;;;;;;13.70;4.53;;;7.60;64.80;;;;;;6189346;23;20449;-89
2022/03/19 08:11:14;;;;;;;14.18;4.80;;;7.60;64.50;;;;;;6163765;23;20020;-90
2022/03/19 08:18:17;;;;;;;14.23;4.82;;;7.90;63.00;;;;;;6187920;23;20016;-89
2022/03/19 08:20:44;;;;;;;12.10;3.90;;;8.00;62.40;;;;;;6185539;23;20028;-89
2022/03/19 08:23:11;;;;;;;15.85;4.43;;;8.20;62.10;;;;;;6162036;23;20028;-90
2022/03/19 08:25:38;;;;;;;10.85;3.42;;;8.30;61.40;;;;;;6188486;23;20012;-90
2022/03/19 08:28:04;;;;;;;12.90;3.58;;;8.50;61.00;;;;;;6185349;23;20064;-88
2022/03/19 08:30:30;;;;;;;14.63;3.67;;;8.60;60.10;;;;;;6185511;23;20345;-89
2022/03/19 08:32:55;;;;;;;17.20;4.80;;;8.70;59.60;;;;;;6185931;23;20020;-90
2022/03/19 08:35:21;;;;;;;10.63;3.92;;;8.80;58.90;;;;;;6185188;23;20059;-89
2022/03/19 08:37:47;;;;;;;12.13;3.67;;;9.00;58.70;;;;;;6186006;23;20404;-88
2022/03/19 08:40:16;;;;;;;13.55;3.97;;;9.00;58.60;;;;;;6187633;23;20322;-89
2022/03/19 08:46:06;;;;;;;14.18;3.75;;;9.30;57.10;;;;;;6187527;23;20017;-90
2022/03/19 08:48:33;;;;;;;12.40;3.58;;;9.40;57.40;;;;;;6186128;23;20043;-89
2022/03/19 08:51:39;;;;;;;11.15;3.53;;;9.50;57.10;;;;;;6136021;23;20017;-89
2022/03/19 08:53:44;;;;;;;12.02;3.50;;;9.60;56.40;;;;;;6185852;23;20021;-89
2022/03/19 08:56:09;;;;;;;11.88;3.45;;;9.70;56.10;;;;;;6186894;23;20020;-89
2022/03/19 08:58:54;;;;;;;14.55;4.00;;;9.70;56.30;;;;;;6186793;23;20422;-88
2022/03/19 09:01:20;;;;;;;13.02;2.83;;;9.80;55.70;;;;;;6160281;23;20470;-88
2022/03/19 09:03:45;;;;;;;12.00;3.80;;;9.80;55.80;;;;;;6187607;23;20027;-88
2022/03/19 09:06:14;;;;;;;12.20;3.70;;;10.10;55.90;;;;;;6185556;23;20052;-88
2022/03/19 09:08:41;;;;;;;9.50;3.47;;;9.90;55.40;;;;;;6187514;23;20035;-89
2022/03/19 09:11:07;;;;;;;10.85;3.17;;;10.10;54.90;;;;;;6184385;23;20021;-86
2022/03/19 09:13:36;;;;;;;11.82;2.95;;;10.10;54.50;;;;;;6184279;23;20108;-86
2022/03/19 09:16:06;;;;;;;11.23;3.13;;;10.10;54.10;;;;;;6208411;23;20052;-87
2022/03/19 09:18:32;;;;;;;11.50;2.83;;;10.20;54.40;;;;;;6184917;23;20068;-89
2022/03/19 09:20:58;;;;;;;13.75;2.97;;;10.30;53.40;;;;;;6186303;23;20457;-89
2022/03/19 09:23:24;;;;;;;14.75;4.13;;;10.30;53.40;;;;;;6186528;23;20125;-89
2022/03/19 09:25:50;;;;;;;10.60;2.95;;;10.80;52.60;;;;;;6162805;23;20021;-88
2022/03/19 09:31:41;;;;;;;10.43;2.78;;;10.50;52.10;;;;;;6184566;23;20017;-87
2022/03/19 09:34:07;;;;;;;10.60;3.40;;;10.50;52.30;;;;;;6184358;23;20017;-88
2022/03/19 09:36:33;;;;;;;8.13;2.55;;;10.80;52.90;;;;;;6186788;23;20371;-87
2022/03/19 09:38:58;;;;;;;11.30;3.22;;;10.80;52.10;;;;;;6187472;23;20017;-89
2022/03/19 09:41:24;;;;;;;9.95;2.65;;;11.00;51.20;;;;;;6184531;23;20104;-89
2022/03/19 09:43:50;;;;;;;8.73;2.97;;;10.90;50.20;;;;;;6187202;23;20379;-88
2022/03/19 09:46:16;;;;;;;10.40;2.75;;;11.00;49.50;;;;;;6185760;23;20017;-88
2022/03/19 09:48:41;;;;;;;10.63;2.53;;;11.00;49.00;;;;;;6188790;23;20013;-88
2022/03/19 09:51:09;;;;;;;12.77;2.40;;;11.10;49.00;;;;;;6186173;23;20024;-88
2022/03/19 09:53:35;;;;;;;8.93;2.63;;;11.00;49.00;;;;;;6186587;23;20028;-84
2022/03/19 09:56:03;;;;;;;8.57;2.53;;;11.20;48.40;;;;;;6185683;23;20013;-86
2022/03/19 09:58:29;;;;;;;7.60;2.70;;;11.20;47.70;;;;;;6187967;23;20056;-86
2022/03/19 10:01:01;;;;;;;10.27;2.92;;;11.30;47.60;;;;;;6186717;23;20016;-86
2022/03/19 10:03:27;;;;;;;7.90;2.33;;;11.30;46.10;;;;;;6185661;23;20619;-85
2022/03/19 10:08:39;;;;;;;8.75;2.90;;;11.30;44.80;;;;;;6187744;23;20021;-85
2022/03/19 10:11:15;;;;;;;8.52;2.10;;;11.30;45.80;;;;;;6185988;23;20021;-85
2022/03/19 10:13:46;;;;;;;10.18;2.65;;;11.40;43.60;;;;;;6186413;23;20013;-85
2022/03/19 10:16:19;;;;;;;8.30;2.60;;;11.40;44.70;;;;;;6185382;23;20024;-84
2022/03/19 10:18:54;;;;;;;7.90;2.28;;;11.30;43.90;;;;;;6186024;23;20060;-85
2022/03/19 10:21:20;;;;;;;8.60;2.80;;;11.30;43.90;;;;;;6185563;23;20524;-86
2022/03/19 10:23:46;;;;;;;9.02;2.80;;;11.40;44.80;;;;;;6185952;23;20056;-86
2022/03/19 10:26:35;;;;;;;12.82;2.63;;;11.80;46.00;;;;;;6185726;23;20068;-86
2022/03/19 10:29:11;;;;;;;10.75;2.60;;;11.50;45.60;;;;;;6186045;23;20013;-85
2022/03/19 10:31:44;;;;;;;9.02;2.47;;;11.50;43.20;;;;;;6185474;23;20021;-85
2022/03/19 10:34:10;;;;;;;10.25;2.97;;;11.70;44.40;;;;;;6186161;23;20046;-85
2022/03/19 10:36:45;;;;;;;10.93;2.78;;;11.60;45.10;;;;;;6185284;23;20461;-85
2022/03/19 10:39:28;;;;;;;12.13;3.60;;;11.60;46.70;;;;;;6186708;23;20017;-87
2022/03/19 10:41:58;;;;;;;12.80;3.70;;;11.70;45.80;;;;;;6185699;23;20027;-85
2022/03/19 10:44:28;;;;;;;8.35;2.28;;;12.10;46.70;;;;;;6184944;23;20013;-85
2022/03/19 10:46:59;;;;;;;8.15;3.08;;;11.70;46.50;;;;;;6186536;23;20032;-84
2022/03/19 10:49:27;;;;;;;10.70;2.67;;;11.90;46.30;;;;;;6186864;23;20017;-84
2022/03/19 10:51:54;;;;;;;7.88;2.58;;;11.80;46.20;;;;;;6187544;23;20337;-85
2022/03/19 10:54:20;;;;;;;10.57;2.80;;;11.90;45.90;;;;;;6186145;23;20476;-84
2022/03/19 10:56:47;;;;;;;9.85;2.88;;;12.00;45.80;;;;;;6184944;23;20013;-85
2022/03/19 10:59:14;;;;;;;7.97;2.55;;;12.00;44.70;;;;;;6186544;23;20075;-83
2022/03/19 11:01:41;;;;;;;8.77;2.75;;;12.00;44.50;;;;;;6185396;23;20024;-83
2022/03/19 11:04:09;;;;;;;8.40;2.90;;;12.40;44.40;;;;;;6185687;23;20021;-83
2022/03/19 11:06:40;;;;;;;8.20;2.65;;;12.10;45.00;;;;;;6187322;23;20017;-83
2022/03/19 11:09:10;;;;;;;7.43;2.50;;;12.20;44.70;;;;;;6185664;23;20028;-83
2022/03/19 11:11:50;;;;;;;6.13;1.92;;;12.20;43.80;;;;;;6185421;23;20381;-83
2022/03/19 11:14:23;;;;;;;10.35;2.60;;;12.30;41.90;;;;;;6184858;23;20017;-82
2022/03/19 11:17:23;;;;;;;9.55;2.92;;;12.50;42.40;;;;;;6187154;23;20017;-83
2022/03/19 11:19:40;;;;;;;13.65;5.38;;;12.40;41.90;;;;;;6185278;23;20017;-83
2022/03/19 11:22:07;;;;;;;6.65;1.98;;;12.50;41.90;;;;;;6160099;23;20031;-83
2022/03/19 11:24:43;;;;;;;5.88;1.80;;;12.50;40.60;;;;;;6184563;23;20021;-83
2022/03/19 11:27:10;;;;;;;9.50;2.33;;;12.50;40.10;;;;;;6185091;23;20394;-84
2022/03/19 11:29:36;;;;;;;8.10;1.85;;;12.70;39.90;;;;;;6160435;23;20095;-83
2022/03/19 11:32:02;;;;;;;6.10;1.63;;;12.60;38.90;;;;;;6187790;23;20088;-83
2022/03/19 11:34:46;;;;;;;8.00;1.70;;;12.50;37.40;;;;;;6185096;23;20051;-84
2022/03/19 11:37:12;;;;;;;9.65;2.25;;;12.50;39.40;;;;;;6185218;23;20044;-84
2022/03/19 11:39:39;;;;;;;9.05;1.92;;;12.60;40.20;;;;;;6186807;23;20011;-83
2022/03/19 11:42:10;;;;;;;7.35;2.13;;;12.60;39.90;;;;;;6184921;23;20056;-83
2022/03/19 11:44:49;;;;;;;7.95;2.63;;;12.70;40.50;;;;;;6186873;23;20044;-83
2022/03/19 11:47:17;;;;;;;6.15;1.50;;;12.70;38.70;;;;;;6186995;23;20024;-80
2022/03/19 11:49:43;;;;;;;6.80;1.45;;;12.80;38.60;;;;;;6160417;23;20096;-82
2022/03/19 11:52:08;;;;;;;6.60;1.70;;;12.80;36.80;;;;;;6192557;23;20072;-83
2022/03/19 11:55:11;;;;;;;5.28;1.67;;;12.80;36.30;;;;;;6192177;23;20009;-83
2022/03/19 11:57:45;;;;;;;6.53;1.77;;;12.90;37.10;;;;;;6046715;23;20054;-82
2022/03/19 12:00:14;;;;;;;;;;;12.90;37.50;;;;;;6043402;23;20367;-82
2022/03/19 12:03:10;;;;;;;4.60;1.38;;;12.90;38.10;;;;;;6042589;23;19917;-83
2022/03/19 12:05:38;;;;;;;9.73;1.75;;;12.90;37.20;;;;;;6042922;23;20071;-83
2022/03/19 12:08:06;;;;;;;6.30;1.80;;;12.90;37.50;;;;;;6066827;23;20022;-82
2022/03/19 12:10:40;;;;;;;5.95;1.95;;;12.90;36.30;;;;;;6066522;23;20114;-82
2022/03/19 12:13:35;;;;;;;;;;;12.90;36.30;;;;;;6067035;23;20333;-82
2022/03/19 12:16:04;;;;;;;4.30;1.40;;;12.90;36.70;;;;;;6066444;23;20285;-83
2022/03/19 12:18:38;;;;;;;4.70;1.13;;;12.90;36.10;;;;;;6066789;23;20026;-83
2022/03/19 12:21:24;;;;;;;5.32;1.33;;;12.90;36.80;;;;;;6066764;23;20022;-82
2022/03/19 12:24:06;;;;;;;5.88;1.75;;;12.90;36.30;;;;;;6066425;23;20116;-84
2022/03/19 12:26:43;;;;;;;7.13;1.50;;;13.00;35.50;;;;;;6066299;23;20102;-84
2022/03/19 12:29:11;;;;;;;5.30;1.45;;;13.00;35.70;;;;;;6067831;23;20098;-87
2022/03/19 12:31:48;;;;;;;6.38;1.88;;;13.00;36.00;;;;;;6100882;23;20018;-88
2022/03/19 12:34:19;;;;;;;5.20;1.65;;;13.10;35.70;;;;;;6156030;23;20021;-89
2022/03/19 12:36:46;;;;;;;6.90;1.83;;;13.10;35.60;;;;;;6157215;23;20048;-88
2022/03/19 12:39:12;;;;;;;7.28;1.52;;;13.10;35.80;;;;;;6156064;23;20106;-88
2022/03/19 12:41:40;;;;;;;8.15;1.40;;;13.00;36.80;;;;;;6155884;23;20021;-89
2022/03/19 12:44:28;;;;;;;5.55;1.50;;;13.20;36.40;;;;;;6157705;23;20013;-89
2022/03/19 12:46:56;;;;;;;6.45;2.08;;;13.40;36.20;;;;;;6132446;23;20021;-89
2022/03/19 12:49:22;;;;;;;5.30;1.25;;;13.30;36.20;;;;;;6157435;23;20036;-89
2022/03/19 12:51:49;;;;;;;4.78;1.50;;;13.20;35.70;;;;;;6157597;23;20028;-89
2022/03/19 12:54:29;;;;;;;5.55;1.30;;;13.20;35.80;;;;;;6159338;23;20068;-88
2022/03/19 12:57:12;;;;;;;5.43;1.20;;;13.20;34.50;;;;;;6157471;23;20017;-89
2022/03/19 12:59:59;;;;;;;4.50;1.20;;;13.20;33.40;;;;;;6133398;23;20060;-88
2022/03/19 13:02:25;;;;;;;3.33;1.58;;;13.20;33.00;;;;;;6157796;23;20021;-90
2022/03/19 13:04:51;;;;;;;3.95;1.17;;;13.20;33.10;;;;;;6133248;23;20472;-88
2022/03/19 13:07:18;;;;;;;5.07;1.15;;;13.20;33.30;;;;;;6135132;23;20022;-88
2022/03/19 13:09:44;;;;;;;2.58;1.15;;;13.20;32.70;;;;;;6162424;23;20024;-90
2022/03/19 13:12:18;;;;;;;3.40;1.27;;;13.40;33.10;;;;;;6139773;23;20018;-89
2022/03/19 13:14:56;;;;;;;4.70;1.35;;;13.20;32.90;;;;;;6160514;23;20316;-90
2022/03/19 13:17:22;;;;;;;1.92;0.90;;;13.20;32.30;;;;;;6136712;23;20056;-90
2022/03/19 13:19:50;;;;;;;3.00;1.30;;;13.30;33.00;;;;;;6134945;23;20017;-90
2022/03/19 13:22:19;;;;;;;4.50;1.58;;;13.20;33.40;;;;;;6173907;23;20071;-91
2022/03/19 13:24:49;;;;;;;3.47;1.42;;;13.20;33.10;;;;;;6193524;23;20044;-91
2022/03/19 13:27:15;;;;;;;6.50;1.77;;;13.20;34.20;;;;;;6193056;23;20027;-91
2022/03/19 13:30:00;;;;;;;4.95;1.50;;;13.20;34.50;;;;;;6189332;23;20465;-90
2022/03/19 13:32:25;;;;;;;4.47;1.27;;;13.30;34.00;;;;;;6190618;23;20024;-90
2022/03/19 13:34:53;;;;;;;4.82;1.20;;;13.40;34.30;;;;;;6188926;23;20053;-89
2022/03/19 13:37:21;;;;;;;4.20;0.90;;;13.30;34.20;;;;;;6188942;23;20535;-90
2022/03/19 13:40:00;;;;;;;4.78;1.00;;;13.60;34.40;;;;;;6190767;23;20023;-90
2022/03/19 13:42:34;;;;;;;3.08;1.02;;;13.30;34.10;;;;;;6189486;23;20021;-91
2022/03/19 13:45:10;;;;;;;2.72;0.98;;;13.30;34.20;;;;;;6189279;23;20341;-91